Barnett, Illinois
Current Conditions -  °F | °C
As of 8:15 AM on Thursday 23 Oct 2014 (Local Time) from K3LF Reporting Station
Clear Clear  
Wind Chill: 39°   Ceiling: Unl
Heat Index: 42°   Visibility: 7mi
Dew Point: 39°   Wind: 5mph
Humidity: 91%   Direction: 130°SE
Pressure: 30.22"   Gusts: NA
Location:  39.1865°N, 89.679°W
Report Text: K3LF 231315Z AUTO 13004KT 7SM CLR 05/04 A3022 RMK AO2 T00530039
Loading
Personal Weather Stations






























Interactive Weather Map
Tropical Storm Tracking
New forecast layout! Learn more

10-Day Weather Forecast

Advertisements
Track Severe Weather on mobile